• Join FlightAware (Why Join?)
  • Login
  • US Flag 
10:16AM EDT


 

Airport Tracker/Info


-or-


 

Live Flight TrackerFlight Track Log ✈ N575W ✈ 24-Oct-2013 ✈ KIND - KCAK

Flight Track Log - Related Links

Times and Time Zones

All times are in EDT time to prevent confusion due to time zone crossing. See the N575W flight status page for this flight to view local times or setup timezone preferences in your user account.

Time Position Orientation Groundspeed Altitude Reporting Facility
EDT Latitude Longitude Course Direction KTS MPH feet Rate Location/Type
04:17PM 39.7000 -86.3000 131° Southeast 100 115 1,200  Level Indianapolis TRACON
04:19PM 39.6667 -86.2500 131° Southeast 131 151 2,500 900 Climbing Indianapolis TRACON
04:20PM 39.6500 -86.2167 123° Southeast 133 153 3,500 900 Climbing Indianapolis TRACON
04:21PM 39.6500 -86.1667 90° East 124 143 4,400 900 Climbing Indianapolis TRACON
04:22PM 39.6500 -86.1333 90° East 120 138 5,300 900 Climbing Indianapolis TRACON
04:23PM 39.6667 -86.0833 67° East 124 143 6,300 900 Climbing Indianapolis TRACON
04:24PM 39.6833 -86.0500 57° Northeast 127 146 7,200 900 Climbing Indianapolis TRACON
04:25PM 39.7000 -86.0167 57° Northeast 130 150 8,100 900 Climbing Indianapolis TRACON
04:26PM 39.7167 -85.9667 67° East 133 153 9,000 960 Climbing Indianapolis TRACON
04:27PM 39.7333 -85.9333 57° Northeast 135 155 10,000 900 Climbing Indianapolis TRACON
04:28PM 39.7333 -85.8833 90° East 138 159 10,800 660 Climbing Indianapolis TRACON
04:28PM 39.7408 -85.8697 54° Northeast 138 159 11,000 120 Climbing Indianapolis Center
04:29PM 39.7583 -85.7986 72° East 172 198 11,000  Level Indianapolis Center
04:30PM 39.7722 -85.7336 74° East 186 214 11,000  Level Indianapolis Center
04:31PM 39.7881 -85.6675 73° East 191 220 11,000  Level Indianapolis Center
04:32PM 39.8031 -85.6011 74° East 193 222 11,000  Level Indianapolis Center
04:33PM 39.8181 -85.5342 74° East 194 223 11,000  Level Indianapolis Center
04:34PM 39.8333 -85.4669 73° East 195 224 11,100 600 Climbing Indianapolis Center
04:35PM 39.8489 -85.3983 74° East 163 188 12,300 900 Climbing Indianapolis Center
04:36PM 39.8608 -85.3447 74° East 154 177 13,000 300 Climbing Indianapolis Center
04:37PM 39.8758 -85.2822 73° East 178 205 13,000  Level Indianapolis Center
04:39PM 39.8847 -85.2131 80° East 191 220 13,000  Level Indianapolis Center
04:40PM 39.8881 -85.1406 87° East 200 230 13,000  Level Indianapolis Center
04:41PM 39.8939 -85.0528 85° East 202 232 13,000  Level Indianapolis Center
04:42PM 39.8975 -84.9803 86° East 203 234 13,000  Level Indianapolis Center
04:43PM 39.8992 -84.9069 88° East 203 234 13,000  Level Indianapolis Center
04:44PM 39.9050 -84.8306 84° East 203 234 13,000  Level Indianapolis Center
04:45PM 39.9250 -84.7642 69° East 198 228 13,000  Level Indianapolis Center
04:46PM 39.9528 -84.7008 60° Northeast 200 230 13,000  Level Indianapolis Center
04:47PM 39.9747 -84.6342 67° East 201 231 13,000  Level Indianapolis Center
04:48PM 40.0019 -84.5550 66° East 200 230 13,000  Level Indianapolis Center
04:49PM 40.0247 -84.4889 66° East 200 230 13,000  Level Indianapolis Center
04:50PM 40.0475 -84.4228 66° East 200 230 13,000  Level Indianapolis Center
04:51PM 40.0708 -84.3561 65° Northeast 201 231 13,000  Level Indianapolis Center
04:52PM 40.0944 -84.2908 65° Northeast 200 230 13,000  Level Indianapolis Center
04:53PM 40.1164 -84.2250 66° East 198 228 13,000  Level Indianapolis Center
04:54PM 40.1400 -84.1594 65° Northeast 199 229 13,000  Level Indianapolis Center
04:55PM 40.1667 -84.0808 66° East 198 228 13,000  Level Indianapolis Center
04:56PM 40.1894 -84.0144 66° East 200 230 13,000  Level Indianapolis Center
04:57PM 40.2131 -83.9483 65° Northeast 200 230 13,000  Level Indianapolis Center
04:58PM 40.2347 -83.8828 67° East 198 228 13,000  Level Indianapolis Center
04:59PM 40.2572 -83.8167 66° East 198 228 13,000  Level Indianapolis Center
05:00PM 40.2794 -83.7489 67° East 201 231 13,000  Level Indianapolis Center
05:01PM 40.3072 -83.6706 65° Northeast 198 228 13,000  Level Indianapolis Center
05:02PM 40.3292 -83.6039 67° East 199 229 13,000  Level Indianapolis Center
05:03PM 40.3517 -83.5364 66° East 200 230 13,000  Level Indianapolis Center
05:04PM 40.3742 -83.4697 66° East 201 231 13,000  Level Indianapolis Center
05:05PM 40.3975 -83.4022 66° East 202 232 13,000  Level Indianapolis Center
05:06PM 40.4194 -83.3347 67° East 201 231 13,000  Level Indianapolis Center
05:07PM 40.4469 -83.2550 66° East 200 230 13,000  Level Indianapolis Center
05:09PM 40.4681 -83.1892 67° East 196 226 13,100  Climbing Indianapolis Center
05:10PM 40.4908 -83.1239 65° Northeast 197 227 13,100  Level Indianapolis Center
05:11PM 40.5122 -83.0578 67° East 197 227 13,100  Level Indianapolis Center
05:12PM 40.5206 -82.9778 82° East 198 228 13,100  Level Indianapolis Center
05:13PM 40.5297 -82.9064 80° East 197 227 13,100  Level Indianapolis Center
05:14PM 40.5397 -82.8344 80° East 197 227 13,100 -60 Level Indianapolis Center
05:15PM 40.5500 -82.7617 79° East 200 230 13,000 -300 Descending Indianapolis Center
05:16PM 40.5597 -82.6881 80° East 203 234 12,500 -540 Descending Indianapolis Center
05:17PM 40.5692 -82.6133 81° East 205 236 11,900 -660 Descending Indianapolis Center
05:18PM 40.5806 -82.5264 80° East 205 236 11,200 -600 Descending Indianapolis Center
05:19PM 40.5911 -82.4522 79° East 206 237 10,700 -540 Descending Indianapolis Center
05:20PM 40.6003 -82.3808 80° East 198 228 10,200 -540 Descending Indianapolis Center
05:21PM 40.6092 -82.3106 81° East 196 226 9,700 -540 Descending Indianapolis Center
05:22PM 40.6189 -82.2408 80° East 193 222 9,200 -420 Descending Indianapolis Center
05:24PM 40.6344 -82.1047 81° East 181 208 8,600 -420 Descending Cleveland Center
05:25PM 40.6611 -82.0439 60° Northeast 192 221 8,100 -540 Descending Cleveland Center
05:26PM 40.6883 -81.9847 59° Northeast 189 217 7,600 -480 Descending Cleveland Center
05:27PM 40.7169 -81.9269 57° Northeast 189 217 7,100 -480 Descending Cleveland Center
05:28PM 40.7436 -81.8667 60° Northeast 189 217 6,600 -540 Descending Cleveland Center
05:29PM 40.7764 -81.7986 58° Northeast 188 216 6,000 -300 Descending Cleveland Center
05:30PM 40.8033 -81.7419 58° Northeast 182 209 6,000  Level Cleveland Center
05:31PM 40.8283 -81.6894 58° Northeast 171 197 6,000 -240 Level Cleveland Center
05:32PM 40.8542 -81.6339 58° Northeast 174 200 5,600 -480 Descending Cleveland Center
05:33PM 40.8903 -81.5908 42° Northeast 182 209 5,100 -540 Descending Cleveland Center
05:34PM 40.9333 -81.5575 30° Northeast 178 205 4,600 -540 Descending Cleveland Center
05:35PM 40.9756 -81.5253 30° Northeast 175 201 4,100 -540 Descending Cleveland Center
05:36PM 41.0258 -81.4858 31° Northeast 178 205 3,500 -540 Descending Cleveland Center
05:37PM 41.0528 -81.4406 52° Northeast 181 208 3,000 -240 Descending Cleveland Center
05:38PM 41.0147 -81.4361 175° South 161 185 3,000 -360 Level Cleveland Center
05:39PM 40.9767 -81.4367 181° South 144 166 2,300 -720 Descending Cleveland Center
05:40PM 40.9436 -81.4383 182° South 128 147 1,600 -480 Descending Cleveland Center
05:42PM 40.9081 -81.4403 182° South 124 143 1,400 -240 Descending Cleveland Center